sensor_id;sensor_type;location;lat;lon;timestamp;P1;durP1;ratioP1;P2;durP2;ratioP2
80576;SDS011;69937;52.420;10.538;2023-10-13T00:04:40;12.32;;;6.45;;
80576;SDS011;69937;52.420;10.538;2023-10-13T00:09:42;13.27;;;6.60;;
80576;SDS011;69937;52.420;10.538;2023-10-13T00:14:42;13.93;;;6.95;;
80576;SDS011;69937;52.420;10.538;2023-10-13T00:19:45;13.95;;;7.20;;
80576;SDS011;69937;52.420;10.538;2023-10-13T00:24:52;15.80;;;7.68;;
80576;SDS011;69937;52.420;10.538;2023-10-13T00:30:05;17.17;;;6.93;;
80576;SDS011;69937;52.420;10.538;2023-10-13T00:40:25;11.05;;;7.50;;
80576;SDS011;69937;52.420;10.538;2023-10-13T00:45:32;15.10;;;7.57;;
80576;SDS011;69937;52.420;10.538;2023-10-13T00:50:34;13.63;;;7.55;;
80576;SDS011;69937;52.420;10.538;2023-10-13T00:55:36;13.93;;;8.02;;
80576;SDS011;69937;52.420;10.538;2023-10-13T01:00:41;13.07;;;8.20;;
80576;SDS011;69937;52.420;10.538;2023-10-13T01:05:49;13.23;;;7.80;;
80576;SDS011;69937;52.420;10.538;2023-10-13T01:10:54;14.55;;;7.47;;
80576;SDS011;69937;52.420;10.538;2023-10-13T01:15:54;13.75;;;7.65;;
80576;SDS011;69937;52.420;10.538;2023-10-13T01:20:55;14.32;;;7.68;;
80576;SDS011;69937;52.420;10.538;2023-10-13T01:25:59;14.23;;;8.23;;
80576;SDS011;69937;52.420;10.538;2023-10-13T01:31:04;14.27;;;7.18;;
80576;SDS011;69937;52.420;10.538;2023-10-13T01:36:08;17.08;;;7.07;;
80576;SDS011;69937;52.420;10.538;2023-10-13T01:41:12;16.70;;;7.90;;
80576;SDS011;69937;52.420;10.538;2023-10-13T01:46:14;15.02;;;7.30;;
80576;SDS011;69937;52.420;10.538;2023-10-13T01:51:21;14.85;;;7.28;;
80576;SDS011;69937;52.420;10.538;2023-10-13T01:56:28;13.90;;;7.18;;
80576;SDS011;69937;52.420;10.538;2023-10-13T02:01:33;14.98;;;6.65;;
80576;SDS011;69937;52.420;10.538;2023-10-13T02:06:35;16.38;;;7.63;;
80576;SDS011;69937;52.420;10.538;2023-10-13T02:11:37;12.55;;;6.72;;
80576;SDS011;69937;52.420;10.538;2023-10-13T02:16:41;15.80;;;6.07;;
80576;SDS011;69937;52.420;10.538;2023-10-13T02:21:47;11.27;;;6.18;;
80576;SDS011;69937;52.420;10.538;2023-10-13T02:26:58;12.32;;;6.07;;
80576;SDS011;69937;52.420;10.538;2023-10-13T02:32:08;12.15;;;5.95;;
80576;SDS011;69937;52.420;10.538;2023-10-13T02:37:18;8.30;;;5.43;;
80576;SDS011;69937;52.420;10.538;2023-10-13T02:42:19;12.25;;;6.28;;
80576;SDS011;69937;52.420;10.538;2023-10-13T02:47:23;9.27;;;6.05;;
80576;SDS011;69937;52.420;10.538;2023-10-13T02:52:24;9.00;;;5.18;;
80576;SDS011;69937;52.420;10.538;2023-10-13T02:57:25;9.20;;;4.78;;
80576;SDS011;69937;52.420;10.538;2023-10-13T03:02:26;11.13;;;4.68;;
80576;SDS011;69937;52.420;10.538;2023-10-13T03:07:31;9.65;;;4.78;;
80576;SDS011;69937;52.420;10.538;2023-10-13T03:12:32;10.98;;;4.75;;
80576;SDS011;69937;52.420;10.538;2023-10-13T03:17:33;7.47;;;5.65;;
80576;SDS011;69937;52.420;10.538;2023-10-13T03:22:33;5.35;;;4.10;;
80576;SDS011;69937;52.420;10.538;2023-10-13T03:27:34;8.75;;;4.38;;
80576;SDS011;69937;52.420;10.538;2023-10-13T03:33:04;10.80;;;3.83;;
80576;SDS011;69937;52.420;10.538;2023-10-13T03:38:11;6.75;;;3.67;;
80576;SDS011;69937;52.420;10.538;2023-10-13T03:43:18;6.07;;;3.75;;
80576;SDS011;69937;52.420;10.538;2023-10-13T03:48:21;6.60;;;3.88;;
80576;SDS011;69937;52.420;10.538;2023-10-13T03:53:25;6.40;;;3.35;;
80576;SDS011;69937;52.420;10.538;2023-10-13T03:58:25;8.35;;;3.67;;
80576;SDS011;69937;52.420;10.538;2023-10-13T04:03:26;5.93;;;4.10;;
80576;SDS011;69937;52.420;10.538;2023-10-13T04:08:42;4.25;;;3.45;;
80576;SDS011;69937;52.420;10.538;2023-10-13T04:13:43;5.07;;;3.80;;
80576;SDS011;69937;52.420;10.538;2023-10-13T04:19:09;8.77;;;4.13;;
80576;SDS011;69937;52.420;10.538;2023-10-13T04:24:19;4.13;;;3.08;;
80576;SDS011;69937;52.420;10.538;2023-10-13T04:29:35;5.93;;;3.75;;
80576;SDS011;69937;52.420;10.538;2023-10-13T04:34:47;4.63;;;3.55;;
80576;SDS011;69937;52.420;10.538;2023-10-13T04:39:51;7.40;;;4.28;;
80576;SDS011;69937;52.420;10.538;2023-10-13T04:44:57;7.80;;;5.03;;
80576;SDS011;69937;52.420;10.538;2023-10-13T04:50:03;7.85;;;4.57;;
80576;SDS011;69937;52.420;10.538;2023-10-13T04:55:21;15.07;;;4.50;;
80576;SDS011;69937;52.420;10.538;2023-10-13T05:00:48;8.15;;;4.57;;
80576;SDS011;69937;52.420;10.538;2023-10-13T05:06:11;6.72;;;3.80;;
80576;SDS011;69937;52.420;10.538;2023-10-13T05:11:32;8.75;;;4.75;;
80576;SDS011;69937;52.420;10.538;2023-10-13T05:16:51;5.85;;;3.95;;
80576;SDS011;69937;52.420;10.538;2023-10-13T05:22:10;6.40;;;4.22;;
80576;SDS011;69937;52.420;10.538;2023-10-13T05:27:29;9.63;;;4.78;;
80576;SDS011;69937;52.420;10.538;2023-10-13T05:32:48;8.35;;;4.07;;
80576;SDS011;69937;52.420;10.538;2023-10-13T05:38:07;8.60;;;5.03;;
80576;SDS011;69937;52.420;10.538;2023-10-13T05:43:26;9.85;;;5.07;;
80576;SDS011;69937;52.420;10.538;2023-10-13T05:48:46;6.47;;;3.70;;
80576;SDS011;69937;52.420;10.538;2023-10-13T05:54:12;5.53;;;3.75;;
80576;SDS011;69937;52.420;10.538;2023-10-13T05:59:14;7.22;;;3.95;;
80576;SDS011;69937;52.420;10.538;2023-10-13T06:04:33;8.70;;;4.43;;
80576;SDS011;69937;52.420;10.538;2023-10-13T06:09:52;6.57;;;5.18;;
80576;SDS011;69937;52.420;10.538;2023-10-13T06:15:11;10.55;;;4.78;;
80576;SDS011;69937;52.420;10.538;2023-10-13T06:20:30;7.18;;;4.38;;
80576;SDS011;69937;52.420;10.538;2023-10-13T06:25:50;8.07;;;3.78;;
80576;SDS011;69937;52.420;10.538;2023-10-13T06:31:12;9.85;;;4.03;;
80576;SDS011;69937;52.420;10.538;2023-10-13T06:36:21;14.10;;;4.65;;
80576;SDS011;69937;52.420;10.538;2023-10-13T06:41:21;8.68;;;4.15;;
80576;SDS011;69937;52.420;10.538;2023-10-13T06:46:30;11.25;;;4.15;;
80576;SDS011;69937;52.420;10.538;2023-10-13T06:51:33;7.30;;;3.78;;
80576;SDS011;69937;52.420;10.538;2023-10-13T06:56:37;6.75;;;4.03;;
80576;SDS011;69937;52.420;10.538;2023-10-13T07:01:40;11.25;;;4.80;;
80576;SDS011;69937;52.420;10.538;2023-10-13T07:06:42;10.45;;;5.05;;
80576;SDS011;69937;52.420;10.538;2023-10-13T07:11:49;8.73;;;4.78;;
80576;SDS011;69937;52.420;10.538;2023-10-13T07:16:56;5.32;;;3.53;;
80576;SDS011;69937;52.420;10.538;2023-10-13T07:22:01;8.30;;;4.68;;
80576;SDS011;69937;52.420;10.538;2023-10-13T07:27:21;9.70;;;4.55;;
80576;SDS011;69937;52.420;10.538;2023-10-13T07:32:25;7.55;;;5.13;;
80576;SDS011;69937;52.420;10.538;2023-10-13T07:37:26;8.65;;;4.38;;
80576;SDS011;69937;52.420;10.538;2023-10-13T07:42:29;10.25;;;4.53;;
80576;SDS011;69937;52.420;10.538;2023-10-13T07:47:39;9.93;;;4.25;;
80576;SDS011;69937;52.420;10.538;2023-10-13T07:52:39;9.23;;;5.28;;
80576;SDS011;69937;52.420;10.538;2023-10-13T07:57:59;11.45;;;4.60;;
80576;SDS011;69937;52.420;10.538;2023-10-13T08:03:00;9.93;;;4.53;;
80576;SDS011;69937;52.420;10.538;2023-10-13T08:08:15;9.35;;;4.28;;
80576;SDS011;69937;52.420;10.538;2023-10-13T08:13:16;7.93;;;4.32;;
80576;SDS011;69937;52.420;10.538;2023-10-13T08:18:20;8.43;;;4.63;;
80576;SDS011;69937;52.420;10.538;2023-10-13T08:23:30;6.40;;;3.97;;
80576;SDS011;69937;52.420;10.538;2023-10-13T08:28:54;9.85;;;4.38;;
80576;SDS011;69937;52.420;10.538;2023-10-13T08:33:54;7.53;;;3.80;;
80576;SDS011;69937;52.420;10.538;2023-10-13T08:44:25;8.50;;;3.83;;
80576;SDS011;69937;52.420;10.538;2023-10-13T08:49:35;6.65;;;3.80;;
80576;SDS011;69937;52.420;10.538;2023-10-13T08:54:39;9.30;;;3.83;;
80576;SDS011;69937;52.420;10.538;2023-10-13T09:00:00;6.20;;;3.38;;
80576;SDS011;69937;52.420;10.538;2023-10-13T09:05:21;5.00;;;2.80;;
80576;SDS011;69937;52.420;10.538;2023-10-13T09:10:42;4.40;;;2.63;;
80576;SDS011;69937;52.420;10.538;2023-10-13T09:16:09;6.35;;;3.28;;
80576;SDS011;69937;52.420;10.538;2023-10-13T09:21:38;5.55;;;2.83;;
80576;SDS011;69937;52.420;10.538;2023-10-13T09:31:57;5.55;;;2.90;;
80576;SDS011;69937;52.420;10.538;2023-10-13T09:42:04;6.43;;;2.95;;
80576;SDS011;69937;52.420;10.538;2023-10-13T09:47:10;3.95;;;2.67;;
80576;SDS011;69937;52.420;10.538;2023-10-13T09:52:18;4.85;;;2.70;;
80576;SDS011;69937;52.420;10.538;2023-10-13T09:57:19;8.38;;;3.05;;
80576;SDS011;69937;52.420;10.538;2023-10-13T10:02:24;5.85;;;2.58;;
80576;SDS011;69937;52.420;10.538;2023-10-13T10:07:28;7.28;;;3.33;;
80576;SDS011;69937;52.420;10.538;2023-10-13T10:12:38;8.23;;;3.65;;
80576;SDS011;69937;52.420;10.538;2023-10-13T10:17:48;9.52;;;2.72;;
80576;SDS011;69937;52.420;10.538;2023-10-13T10:22:59;9.25;;;2.50;;
80576;SDS011;69937;52.420;10.538;2023-10-13T10:28:01;7.05;;;2.88;;
80576;SDS011;69937;52.420;10.538;2023-10-13T10:33:05;6.47;;;2.45;;
80576;SDS011;69937;52.420;10.538;2023-10-13T10:38:21;9.52;;;2.88;;
80576;SDS011;69937;52.420;10.538;2023-10-13T10:43:38;9.02;;;2.97;;
80576;SDS011;69937;52.420;10.538;2023-10-13T10:48:42;8.43;;;2.83;;
80576;SDS011;69937;52.420;10.538;2023-10-13T10:53:43;8.20;;;3.13;;
80576;SDS011;69937;52.420;10.538;2023-10-13T10:58:44;7.13;;;3.13;;
80576;SDS011;69937;52.420;10.538;2023-10-13T11:09:04;7.13;;;3.05;;
80576;SDS011;69937;52.420;10.538;2023-10-13T11:14:25;9.20;;;2.72;;
80576;SDS011;69937;52.420;10.538;2023-10-13T11:19:33;7.10;;;2.58;;
80576;SDS011;69937;52.420;10.538;2023-10-13T11:24:39;13.77;;;2.90;;
80576;SDS011;69937;52.420;10.538;2023-10-13T11:29:40;8.75;;;2.72;;
80576;SDS011;69937;52.420;10.538;2023-10-13T11:34:41;8.38;;;3.15;;
80576;SDS011;69937;52.420;10.538;2023-10-13T11:39:41;10.32;;;3.40;;
80576;SDS011;69937;52.420;10.538;2023-10-13T11:44:43;8.43;;;4.03;;
80576;SDS011;69937;52.420;10.538;2023-10-13T11:49:44;9.63;;;3.22;;
80576;SDS011;69937;52.420;10.538;2023-10-13T11:54:45;10.63;;;3.00;;
80576;SDS011;69937;52.420;10.538;2023-10-13T11:59:46;10.13;;;2.85;;
80576;SDS011;69937;52.420;10.538;2023-10-13T12:04:53;10.50;;;3.42;;
80576;SDS011;69937;52.420;10.538;2023-10-13T12:09:54;13.13;;;3.65;;
80576;SDS011;69937;52.420;10.538;2023-10-13T12:14:54;10.82;;;3.55;;
80576;SDS011;69937;52.420;10.538;2023-10-13T12:19:56;10.90;;;3.28;;
80576;SDS011;69937;52.420;10.538;2023-10-13T12:24:59;8.57;;;3.30;;
80576;SDS011;69937;52.420;10.538;2023-10-13T12:30:04;13.05;;;3.42;;
80576;SDS011;69937;52.420;10.538;2023-10-13T12:35:13;13.93;;;2.33;;
80576;SDS011;69937;52.420;10.538;2023-10-13T12:40:18;13.73;;;3.28;;
80576;SDS011;69937;52.420;10.538;2023-10-13T12:45:38;10.82;;;2.83;;
80576;SDS011;69937;52.420;10.538;2023-10-13T12:51:00;9.93;;;3.03;;
80576;SDS011;69937;52.420;10.538;2023-10-13T12:56:20;15.57;;;3.20;;
80576;SDS011;69937;52.420;10.538;2023-10-13T13:01:28;8.68;;;2.72;;
80576;SDS011;69937;52.420;10.538;2023-10-13T13:06:32;12.30;;;2.85;;
80576;SDS011;69937;52.420;10.538;2023-10-13T13:11:33;11.82;;;3.22;;
80576;SDS011;69937;52.420;10.538;2023-10-13T13:16:51;11.88;;;3.35;;
80576;SDS011;69937;52.420;10.538;2023-10-13T13:21:51;10.07;;;3.67;;
80576;SDS011;69937;52.420;10.538;2023-10-13T13:26:55;8.15;;;3.10;;
80576;SDS011;69937;52.420;10.538;2023-10-13T13:31:56;15.55;;;4.03;;
80576;SDS011;69937;52.420;10.538;2023-10-13T13:36:57;10.55;;;3.28;;
80576;SDS011;69937;52.420;10.538;2023-10-13T13:42:00;8.32;;;3.25;;
80576;SDS011;69937;52.420;10.538;2023-10-13T13:47:01;14.00;;;3.47;;
80576;SDS011;69937;52.420;10.538;2023-10-13T13:52:14;13.68;;;3.38;;
80576;SDS011;69937;52.420;10.538;2023-10-13T13:57:20;10.80;;;2.92;;
80576;SDS011;69937;52.420;10.538;2023-10-13T14:02:21;12.45;;;3.47;;
80576;SDS011;69937;52.420;10.538;2023-10-13T14:07:21;12.90;;;3.22;;
80576;SDS011;69937;52.420;10.538;2023-10-13T14:12:24;12.25;;;3.33;;
80576;SDS011;69937;52.420;10.538;2023-10-13T14:17:41;10.60;;;3.33;;
80576;SDS011;69937;52.420;10.538;2023-10-13T14:22:42;11.00;;;3.33;;
80576;SDS011;69937;52.420;10.538;2023-10-13T14:27:43;8.57;;;3.13;;
80576;SDS011;69937;52.420;10.538;2023-10-13T14:32:44;10.20;;;3.65;;
80576;SDS011;69937;52.420;10.538;2023-10-13T14:37:44;10.93;;;3.58;;
80576;SDS011;69937;52.420;10.538;2023-10-13T14:42:45;10.30;;;3.70;;
80576;SDS011;69937;52.420;10.538;2023-10-13T14:47:46;7.72;;;3.08;;
80576;SDS011;69937;52.420;10.538;2023-10-13T14:52:48;12.88;;;3.25;;
80576;SDS011;69937;52.420;10.538;2023-10-13T14:57:49;15.52;;;3.22;;
80576;SDS011;69937;52.420;10.538;2023-10-13T15:02:54;10.15;;;3.60;;
80576;SDS011;69937;52.420;10.538;2023-10-13T15:07:55;17.58;;;3.75;;
80576;SDS011;69937;52.420;10.538;2023-10-13T15:12:55;15.25;;;4.35;;
80576;SDS011;69937;52.420;10.538;2023-10-13T15:17:59;8.98;;;4.20;;
80576;SDS011;69937;52.420;10.538;2023-10-13T15:23:01;9.30;;;3.58;;
80576;SDS011;69937;52.420;10.538;2023-10-13T15:28:03;15.00;;;3.58;;
80576;SDS011;69937;52.420;10.538;2023-10-13T15:33:05;13.98;;;4.07;;
80576;SDS011;69937;52.420;10.538;2023-10-13T15:38:06;13.65;;;4.00;;
80576;SDS011;69937;52.420;10.538;2023-10-13T15:43:10;12.18;;;4.63;;
80576;SDS011;69937;52.420;10.538;2023-10-13T15:48:12;9.15;;;3.17;;
80576;SDS011;69937;52.420;10.538;2023-10-13T15:53:14;11.85;;;3.70;;
80576;SDS011;69937;52.420;10.538;2023-10-13T15:58:15;14.88;;;4.90;;
80576;SDS011;69937;52.420;10.538;2023-10-13T16:03:16;14.38;;;4.32;;
80576;SDS011;69937;52.420;10.538;2023-10-13T16:08:17;10.60;;;4.05;;
80576;SDS011;69937;52.420;10.538;2023-10-13T16:13:18;13.32;;;3.35;;
80576;SDS011;69937;52.420;10.538;2023-10-13T16:18:20;7.97;;;3.70;;
80576;SDS011;69937;52.420;10.538;2023-10-13T16:23:22;9.68;;;3.70;;
80576;SDS011;69937;52.420;10.538;2023-10-13T16:28:23;13.38;;;3.67;;
80576;SDS011;69937;52.420;10.538;2023-10-13T16:33:24;10.82;;;3.40;;
80576;SDS011;69937;52.420;10.538;2023-10-13T16:38:24;12.65;;;4.35;;
80576;SDS011;69937;52.420;10.538;2023-10-13T16:43:25;10.75;;;3.83;;
80576;SDS011;69937;52.420;10.538;2023-10-13T16:48:26;13.02;;;4.45;;
80576;SDS011;69937;52.420;10.538;2023-10-13T16:53:27;9.32;;;4.18;;
80576;SDS011;69937;52.420;10.538;2023-10-13T16:58:27;15.93;;;3.97;;
80576;SDS011;69937;52.420;10.538;2023-10-13T17:03:30;9.52;;;3.83;;
80576;SDS011;69937;52.420;10.538;2023-10-13T17:08:31;12.75;;;4.57;;
80576;SDS011;69937;52.420;10.538;2023-10-13T17:13:32;12.07;;;3.15;;
80576;SDS011;69937;52.420;10.538;2023-10-13T17:18:34;15.63;;;4.47;;
80576;SDS011;69937;52.420;10.538;2023-10-13T17:23:34;10.68;;;4.65;;
80576;SDS011;69937;52.420;10.538;2023-10-13T17:28:35;7.80;;;3.63;;
80576;SDS011;69937;52.420;10.538;2023-10-13T17:33:36;10.93;;;5.30;;
80576;SDS011;69937;52.420;10.538;2023-10-13T17:38:39;6.93;;;3.65;;
80576;SDS011;69937;52.420;10.538;2023-10-13T17:43:40;9.80;;;4.35;;
80576;SDS011;69937;52.420;10.538;2023-10-13T17:48:41;8.52;;;3.80;;
80576;SDS011;69937;52.420;10.538;2023-10-13T17:53:43;11.43;;;4.50;;
80576;SDS011;69937;52.420;10.538;2023-10-13T17:58:46;12.95;;;4.10;;
80576;SDS011;69937;52.420;10.538;2023-10-13T18:03:47;9.65;;;4.45;;
80576;SDS011;69937;52.420;10.538;2023-10-13T18:08:59;11.32;;;4.75;;
80576;SDS011;69937;52.420;10.538;2023-10-13T18:13:59;10.13;;;4.45;;
80576;SDS011;69937;52.420;10.538;2023-10-13T18:19:00;12.30;;;4.55;;
80576;SDS011;69937;52.420;10.538;2023-10-13T18:24:10;14.80;;;4.65;;
80576;SDS011;69937;52.420;10.538;2023-10-13T18:29:11;9.50;;;4.32;;
80576;SDS011;69937;52.420;10.538;2023-10-13T18:34:12;10.23;;;4.18;;
80576;SDS011;69937;52.420;10.538;2023-10-13T18:39:13;8.65;;;4.07;;
80576;SDS011;69937;52.420;10.538;2023-10-13T18:44:18;12.98;;;4.15;;
80576;SDS011;69937;52.420;10.538;2023-10-13T18:49:20;9.13;;;4.65;;
80576;SDS011;69937;52.420;10.538;2023-10-13T18:54:21;12.15;;;3.97;;
80576;SDS011;69937;52.420;10.538;2023-10-13T18:59:22;11.38;;;4.35;;
80576;SDS011;69937;52.420;10.538;2023-10-13T19:04:23;10.95;;;4.43;;
80576;SDS011;69937;52.420;10.538;2023-10-13T19:09:23;14.68;;;4.60;;
80576;SDS011;69937;52.420;10.538;2023-10-13T19:19:28;14.60;;;3.92;;
80576;SDS011;69937;52.420;10.538;2023-10-13T19:24:32;9.75;;;3.47;;
80576;SDS011;69937;52.420;10.538;2023-10-13T19:29:33;10.48;;;4.05;;
80576;SDS011;69937;52.420;10.538;2023-10-13T19:34:34;8.80;;;4.50;;
80576;SDS011;69937;52.420;10.538;2023-10-13T19:39:34;7.95;;;4.60;;
80576;SDS011;69937;52.420;10.538;2023-10-13T19:44:40;11.55;;;5.10;;
80576;SDS011;69937;52.420;10.538;2023-10-13T19:49:43;18.02;;;4.07;;
80576;SDS011;69937;52.420;10.538;2023-10-13T19:54:45;13.60;;;5.05;;
80576;SDS011;69937;52.420;10.538;2023-10-13T19:59:45;8.20;;;4.05;;
80576;SDS011;69937;52.420;10.538;2023-10-13T20:04:46;11.45;;;4.95;;
80576;SDS011;69937;52.420;10.538;2023-10-13T20:09:47;7.63;;;3.95;;
80576;SDS011;69937;52.420;10.538;2023-10-13T20:14:47;14.25;;;4.28;;
80576;SDS011;69937;52.420;10.538;2023-10-13T20:19:48;10.75;;;4.30;;
80576;SDS011;69937;52.420;10.538;2023-10-13T20:24:49;13.40;;;3.92;;
80576;SDS011;69937;52.420;10.538;2023-10-13T20:29:49;13.70;;;4.18;;
80576;SDS011;69937;52.420;10.538;2023-10-13T20:34:51;9.98;;;4.07;;
80576;SDS011;69937;52.420;10.538;2023-10-13T20:39:52;8.85;;;4.18;;
80576;SDS011;69937;52.420;10.538;2023-10-13T20:44:56;12.60;;;3.42;;
80576;SDS011;69937;52.420;10.538;2023-10-13T20:49:57;8.88;;;4.35;;
80576;SDS011;69937;52.420;10.538;2023-10-13T20:54:57;14.60;;;5.50;;
80576;SDS011;69937;52.420;10.538;2023-10-13T20:59:58;13.77;;;4.28;;
80576;SDS011;69937;52.420;10.538;2023-10-13T21:05:01;12.35;;;4.53;;
80576;SDS011;69937;52.420;10.538;2023-10-13T21:10:08;11.30;;;4.28;;
80576;SDS011;69937;52.420;10.538;2023-10-13T21:15:15;10.18;;;4.13;;
80576;SDS011;69937;52.420;10.538;2023-10-13T21:20:17;13.02;;;4.70;;
80576;SDS011;69937;52.420;10.538;2023-10-13T21:25:17;8.88;;;3.78;;
80576;SDS011;69937;52.420;10.538;2023-10-13T21:30:24;11.77;;;4.30;;
80576;SDS011;69937;52.420;10.538;2023-10-13T21:35:26;11.60;;;4.05;;
80576;SDS011;69937;52.420;10.538;2023-10-13T21:40:29;8.70;;;3.72;;
80576;SDS011;69937;52.420;10.538;2023-10-13T21:45:30;9.00;;;4.10;;
80576;SDS011;69937;52.420;10.538;2023-10-13T21:50:31;8.25;;;4.07;;
80576;SDS011;69937;52.420;10.538;2023-10-13T21:55:33;11.18;;;3.65;;
80576;SDS011;69937;52.420;10.538;2023-10-13T22:00:34;7.50;;;4.10;;
80576;SDS011;69937;52.420;10.538;2023-10-13T22:05:34;10.02;;;4.65;;
80576;SDS011;69937;52.420;10.538;2023-10-13T22:10:35;7.70;;;4.07;;
80576;SDS011;69937;52.420;10.538;2023-10-13T22:15:35;10.50;;;4.13;;
80576;SDS011;69937;52.420;10.538;2023-10-13T22:20:39;8.95;;;3.97;;
80576;SDS011;69937;52.420;10.538;2023-10-13T22:25:40;9.88;;;3.72;;
80576;SDS011;69937;52.420;10.538;2023-10-13T22:30:41;8.70;;;4.53;;
80576;SDS011;69937;52.420;10.538;2023-10-13T22:35:41;12.30;;;4.78;;
80576;SDS011;69937;52.420;10.538;2023-10-13T22:40:42;14.32;;;4.97;;
80576;SDS011;69937;52.420;10.538;2023-10-13T22:45:43;15.70;;;4.57;;
80576;SDS011;69937;52.420;10.538;2023-10-13T22:50:43;11.73;;;4.38;;
80576;SDS011;69937;52.420;10.538;2023-10-13T22:55:45;8.57;;;4.38;;
80576;SDS011;69937;52.420;10.538;2023-10-13T23:00:46;8.82;;;4.53;;
80576;SDS011;69937;52.420;10.538;2023-10-13T23:05:48;7.38;;;4.40;;
80576;SDS011;69937;52.420;10.538;2023-10-13T23:10:52;8.07;;;4.80;;
80576;SDS011;69937;52.420;10.538;2023-10-13T23:15:53;12.60;;;4.43;;
80576;SDS011;69937;52.420;10.538;2023-10-13T23:20:54;14.23;;;4.22;;
80576;SDS011;69937;52.420;10.538;2023-10-13T23:25:55;9.52;;;4.50;;
80576;SDS011;69937;52.420;10.538;2023-10-13T23:30:55;10.18;;;5.20;;
80576;SDS011;69937;52.420;10.538;2023-10-13T23:35:57;10.68;;;4.53;;
80576;SDS011;69937;52.420;10.538;2023-10-13T23:40:57;10.30;;;5.35;;
80576;SDS011;69937;52.420;10.538;2023-10-13T23:45:58;12.23;;;4.72;;
80576;SDS011;69937;52.420;10.538;2023-10-13T23:51:00;12.02;;;4.55;;
80576;SDS011;69937;52.420;10.538;2023-10-13T23:56:05;13.13;;;4.63;;
